Roxas, Philippines
Current Conditions -  °F | °C
As of 1:00 AM on Thursday 27 Nov 2014 (Local Time) from RPVM Reporting Station
Light Rain Light Rain  
Wind Chill: 77°   Ceiling: 8000
Heat Index: 78°   Visibility: 4mi
Dew Point: 75°   Wind: 21mph
Humidity: 94%   Direction: 10°N
Pressure: 29.71"   Gusts: NA
Location:  11.6°N, 122.75°E
Report Text: RPVM 261700Z 01018KT 6000 -RA SCT020 OVC080 25/24 Q1006 RMK A2971
Loading
Personal Weather Stations






























Interactive Weather Map New forecast layout! Learn more

10-Day Weather Forecast

Advertisements
Track Severe Weather on mobile